createdAt,value
2022-08-24T00:03:55.203Z,22.00
2022-08-24T00:14:26.413Z,21.50
2022-08-24T00:24:55.479Z,23.60
2022-08-24T00:35:24.968Z,23.40
2022-08-24T00:46:16.201Z,21.70
2022-08-24T00:56:49.601Z,21.20
2022-08-24T01:07:18.545Z,23.20
2022-08-24T01:18:06.008Z,24.30
2022-08-24T01:28:37.078Z,25.20
2022-08-24T01:39:12.001Z,24.20
2022-08-24T01:49:44.402Z,20.90
2022-08-24T02:00:16.736Z,25.00
2022-08-24T02:10:54.984Z,27.80
2022-08-24T02:21:26.032Z,27.10
2022-08-24T02:31:55.961Z,28.30
2022-08-24T02:42:24.941Z,29.20
2022-08-24T02:52:54.654Z,27.80
2022-08-24T03:03:25.476Z,26.60
2022-08-24T03:13:54.441Z,26.20
2022-08-24T03:24:23.852Z,24.70
2022-08-24T03:34:52.763Z,26.30
2022-08-24T03:45:23.213Z,25.30
2022-08-24T03:55:52.625Z,23.40
2022-08-24T04:06:23.318Z,23.50
2022-08-24T04:16:55.332Z,23.00
2022-08-24T04:27:27.200Z,19.00
2022-08-24T04:37:56.088Z,21.10
2022-08-24T04:48:25.497Z,20.20
2022-08-24T04:58:55.922Z,19.00
2022-08-24T05:09:24.850Z,19.90
2022-08-24T05:19:53.752Z,17.80
2022-08-24T05:30:23.339Z,17.00
2022-08-24T05:40:52.482Z,16.60
2022-08-24T05:51:21.801Z,17.00
2022-08-24T06:01:50.981Z,14.10
2022-08-24T06:12:20.403Z,14.20
2022-08-24T06:22:49.335Z,13.60
2022-08-24T06:33:19.527Z,13.00
2022-08-24T06:43:49.043Z,13.40
2022-08-24T06:54:18.173Z,14.80
2022-08-24T07:04:47.196Z,15.30
2022-08-24T07:15:16.658Z,14.50
2022-08-24T07:25:49.698Z,13.10
2022-08-24T07:36:22.398Z,14.90
2022-08-24T07:46:52.870Z,15.10
2022-08-24T07:57:21.802Z,17.30
2022-08-24T08:07:52.233Z,14.80
2022-08-24T08:18:21.937Z,15.80
2022-08-24T08:28:50.948Z,17.70
2022-08-24T08:39:22.006Z,18.80
2022-08-24T08:50:11.205Z,23.10
2022-08-24T09:00:56.446Z,20.80
2022-08-24T09:11:36.567Z,22.20
2022-08-24T09:22:15.932Z,19.80
2022-08-24T09:33:07.783Z,17.60
2022-08-24T09:44:07.164Z,20.30
2022-08-24T09:55:10.709Z,22.10
2022-08-24T10:06:04.499Z,21.20
2022-08-24T10:16:46.128Z,19.80
2022-08-24T10:27:33.474Z,19.70
2022-08-24T10:38:47.858Z,19.40
2022-08-24T10:49:58.298Z,19.80
2022-08-24T11:00:30.776Z,20.40
2022-08-24T11:11:11.833Z,18.00
2022-08-24T11:21:53.436Z,20.00
2022-08-24T11:32:39.086Z,19.10
2022-08-24T11:43:19.131Z,21.00
2022-08-24T11:54:01.573Z,21.20
2022-08-24T12:04:51.171Z,21.30
2022-08-24T12:15:29.020Z,21.10
2022-08-24T12:26:05.505Z,22.60
2022-08-24T12:36:40.207Z,21.70
2022-08-24T12:47:09.787Z,20.80
2022-08-24T12:58:02.902Z,21.50
2022-08-24T13:08:40.539Z,19.60
2022-08-24T13:19:20.065Z,17.30
2022-08-24T13:29:55.244Z,19.80
2022-08-24T13:40:28.336Z,19.60
2022-08-24T13:51:25.679Z,20.80
2022-08-24T14:02:06.433Z,19.10
2022-08-24T14:12:54.132Z,17.10
2022-08-24T14:23:46.220Z,16.00
2022-08-24T14:34:26.713Z,15.50
2022-08-24T14:45:05.795Z,15.30
2022-08-24T14:55:46.758Z,15.30
2022-08-24T15:06:28.603Z,14.60
2022-08-24T15:17:08.428Z,16.00
2022-08-24T15:27:45.143Z,15.10
2022-08-24T15:38:26.091Z,13.90
2022-08-24T15:49:01.623Z,14.70
2022-08-24T15:59:34.178Z,13.30
2022-08-24T16:10:10.880Z,13.00
2022-08-24T16:20:40.750Z,12.60
2022-08-24T16:31:10.092Z,11.10
2022-08-24T16:41:40.501Z,12.40
2022-08-24T16:52:10.224Z,10.30
2022-08-24T17:02:39.348Z,11.20
2022-08-24T17:13:08.489Z,12.00
2022-08-24T17:23:38.089Z,9.80
2022-08-24T17:34:08.892Z,10.10
2022-08-24T17:44:37.970Z,14.40
2022-08-24T17:55:08.225Z,12.30
2022-08-24T18:05:37.767Z,13.40
2022-08-24T18:16:08.588Z,15.80
2022-08-24T18:26:39.289Z,13.10
2022-08-24T18:37:16.539Z,18.30
2022-08-24T18:47:53.200Z,16.40
2022-08-24T18:58:22.796Z,14.80
2022-08-24T19:08:52.201Z,12.00
2022-08-24T19:19:21.530Z,10.50
2022-08-24T19:29:57.979Z,8.80
2022-08-24T19:40:27.274Z,8.20
2022-08-24T19:50:56.969Z,6.80
2022-08-24T20:01:27.766Z,6.50
2022-08-24T20:11:56.838Z,7.90
2022-08-24T20:22:26.021Z,6.20
2022-08-24T20:32:54.845Z,6.90
2022-08-24T20:43:23.856Z,6.00
2022-08-24T20:53:52.787Z,6.10
2022-08-24T21:04:22.083Z,7.40
2022-08-24T21:14:51.285Z,8.70
2022-08-24T21:25:21.361Z,5.90
2022-08-24T21:35:50.196Z,6.20
2022-08-24T21:46:20.613Z,5.60
2022-08-24T21:56:49.815Z,6.30
2022-08-24T22:07:19.101Z,6.20
2022-08-24T22:17:51.902Z,6.20
2022-08-24T22:28:21.728Z,6.80
2022-08-24T22:38:50.758Z,5.50
2022-08-24T22:49:21.191Z,5.70
2022-08-24T22:59:50.043Z,6.10
2022-08-24T23:10:18.868Z,5.70
2022-08-24T23:20:47.704Z,6.40
2022-08-24T23:31:18.210Z,5.30
2022-08-24T23:41:48.121Z,6.50
2022-08-24T23:52:28.279Z,6.90
